Time;durP1;ratioP1;P1;durP2;ratioP2;P2;SDS_P1;SDS_P2;PMS_P1;PMS_P2;Temp;Humidity;BMP_temperature;BMP_pressure;BME280_temperature;BME280_humidity;BME280_pressure;Samples;Min_cycle;Max_cycle;Signal;HPM_P1;HPM_P2
2022/04/06 00:01:02;;;;;;;14.40;12.60;;;;;;;9.37;84.17;98153.34;2622750;39;20653;-63
2022/04/06 00:03:35;;;;;;;13.55;11.75;;;;;;;9.39;83.94;98153.97;2620934;54;20038;-63
2022/04/06 00:06:04;;;;;;;13.88;12.45;;;;;;;9.43;83.18;98142.00;2620606;54;20041;-62
2022/04/06 00:08:34;;;;;;;13.10;11.70;;;;;;;9.44;83.28;98138.34;2621233;54;20039;-63
2022/04/06 00:11:04;;;;;;;13.90;12.40;;;;;;;9.44;83.08;98135.72;2621927;54;20030;-64
2022/04/06 00:13:34;;;;;;;12.98;11.40;;;;;;;9.42;82.65;98143.00;2622290;54;20034;-64
2022/04/06 00:16:04;;;;;;;15.23;11.95;;;;;;;9.43;82.99;98136.75;2622598;39;20528;-64
2022/04/06 00:18:36;;;;;;;14.15;12.65;;;;;;;9.51;82.86;98140.97;2623241;39;20497;-63
2022/04/06 00:21:06;;;;;;;14.45;12.88;;;;;;;9.52;82.84;98143.44;2621493;47;20062;-63
2022/04/06 00:23:35;;;;;;;12.98;11.35;;;;;;;9.52;82.29;98135.53;2622341;54;20035;-64
2022/04/06 00:26:05;;;;;;;13.55;12.15;;;;;;;9.54;82.32;98138.75;2621743;54;20052;-64
2022/04/06 00:28:35;;;;;;;13.88;12.38;;;;;;;9.57;82.63;98137.56;2621994;54;20038;-63
2022/04/06 00:31:05;;;;;;;15.77;13.90;;;;;;;9.55;82.45;98136.94;2622678;54;20037;-62
2022/04/06 00:33:37;;;;;;;14.45;12.63;;;;;;;9.50;82.86;98132.25;2623445;54;20082;-63
2022/04/06 00:36:07;;;;;;;14.00;12.60;;;;;;;9.48;82.70;98130.84;2623119;54;20762;-63
2022/04/06 00:38:37;;;;;;;13.82;11.98;;;;;;;9.45;83.30;98132.06;2623145;54;20041;-63
2022/04/06 00:41:06;;;;;;;13.82;12.38;;;;;;;9.44;83.17;98130.44;2623020;54;20030;-63
2022/04/06 00:43:36;;;;;;;17.15;13.48;;;;;;;9.43;83.78;98134.91;2623019;54;20042;-62
2022/04/06 00:46:06;;;;;;;14.60;13.05;;;;;;;9.41;83.76;98130.84;2623211;54;20069;-65
2022/04/06 00:48:38;;;;;;;16.95;12.80;;;;;;;9.43;83.90;98120.91;2622803;54;20046;-64
2022/04/06 00:51:08;;;;;;;14.55;12.45;;;;;;;9.46;83.85;98128.41;2623052;54;20038;-63
2022/04/06 00:53:37;;;;;;;14.98;13.00;;;;;;;9.45;83.35;98124.16;2623183;54;20039;-65
2022/04/06 00:56:07;;;;;;;13.25;11.82;;;;;;;9.45;83.39;98128.63;2623231;54;20037;-64
2022/04/06 00:58:37;;;;;;;14.10;12.23;;;;;;;9.48;83.66;98120.31;2622863;54;20027;-64
2022/04/06 01:01:07;;;;;;;14.85;12.85;;;;;;;9.50;83.41;98120.91;2623351;54;20031;-63
2022/04/06 01:03:40;;;;;;;13.02;11.63;;;;;;;9.48;83.58;98113.19;2622236;54;20054;-63
2022/04/06 01:06:10;;;;;;;12.88;10.88;;;;;;;9.47;82.87;98119.50;2621480;54;20042;-65
2022/04/06 01:08:40;;;;;;;12.38;11.07;;;;;;;9.49;83.28;98112.19;2621312;47;20605;-62
2022/04/06 01:11:09;;;;;;;12.10;10.88;;;;;;;9.55;82.78;98113.19;2621944;54;20034;-64
2022/04/06 01:13:40;;;;;;;12.18;10.98;;;;;;;9.56;82.52;98110.34;2620723;54;20026;-63
2022/04/06 01:16:09;;;;;;;16.23;12.07;;;;;;;9.59;82.45;98102.03;2621973;54;20038;-63
2022/04/06 01:18:42;;;;;;;13.43;11.80;;;;;;;9.60;81.82;98094.94;2621315;54;20030;-64
2022/04/06 01:21:12;;;;;;;11.73;10.52;;;;;;;9.58;81.88;98102.22;2621147;54;20030;-64
2022/04/06 01:23:46;;;;;;;13.30;11.00;;;;;;;9.60;81.89;98094.94;2620211;54;20026;-64
2022/04/06 01:26:16;;;;;;;14.30;11.32;;;;;;;9.64;82.05;98098.78;2618958;54;20026;-64
2022/04/06 01:28:46;;;;;;;13.65;11.70;;;;;;;9.67;81.58;98095.72;2618077;54;20551;-63
2022/04/06 01:31:15;;;;;;;13.52;11.10;;;;;;;9.65;81.51;98088.03;2618802;39;20439;-64
2022/04/06 01:33:46;;;;;;;12.70;10.43;;;;;;;9.66;81.27;98094.91;2618397;54;20114;-64
2022/04/06 01:36:15;;;;;;;12.15;10.75;;;;;;;9.68;80.97;98084.97;2618365;54;20042;-64
2022/04/06 01:38:47;;;;;;;12.10;9.85;;;;;;;9.66;80.95;98080.91;2617658;54;20038;-63
2022/04/06 01:41:17;;;;;;;12.48;11.10;;;;;;;9.69;80.71;98083.16;2618359;54;20565;-64
2022/04/06 01:43:47;;;;;;;11.60;9.23;;;;;;;9.67;80.82;98085.16;2618401;54;20563;-64
2022/04/06 01:46:16;;;;;;;11.77;9.60;;;;;;;9.65;80.95;98087.22;2618556;54;20030;-63
2022/04/06 01:54:13;;;;;;;10.48;9.40;;;;;;;9.65;80.69;98077.47;2622437;54;20562;-64
2022/04/06 01:56:42;;;;;;;12.65;9.88;;;;;;;9.59;80.55;98083.56;2622358;54;20038;-64
2022/04/06 01:59:12;;;;;;;10.70;9.23;;;;;;;9.61;80.69;98080.72;2623320;54;20029;-64
2022/04/06 02:01:42;;;;;;;12.20;9.80;;;;;;;9.63;80.63;98074.22;2623297;54;20038;-64
2022/04/06 02:04:16;;;;;;;11.10;9.85;;;;;;;9.68;79.95;98074.44;2622014;54;20634;-64
2022/04/06 02:06:46;;;;;;;11.45;10.25;;;;;;;9.67;80.24;98075.44;2620736;54;20034;-64
2022/04/06 02:09:22;;;;;;;13.05;9.88;;;;;;;9.64;80.05;98065.28;2621985;54;20045;-64
2022/04/06 02:11:52;;;;;;;12.68;9.77;;;;;;;9.64;79.93;98069.75;2618723;39;20459;-64
2022/04/06 02:14:21;;;;;;;11.93;10.15;;;;;;;9.65;79.83;98063.47;2618319;54;20083;-64
2022/04/06 02:16:51;;;;;;;12.07;9.85;;;;;;;9.65;80.08;98058.19;2617983;54;20030;-62
2022/04/06 02:19:21;;;;;;;11.63;10.35;;;;;;;9.63;79.97;98053.13;2618186;54;20033;-64
2022/04/06 02:21:51;;;;;;;11.25;10.15;;;;;;;9.61;79.92;98047.22;2618182;54;20030;-63
2022/04/06 02:24:23;;;;;;;11.85;10.40;;;;;;;9.60;80.13;98048.25;2618569;54;20037;-63
2022/04/06 02:26:53;;;;;;;12.38;9.65;;;;;;;9.61;80.09;98041.13;2618134;54;20034;-62
2022/04/06 02:29:22;;;;;;;10.27;9.25;;;;;;;9.59;79.69;98041.34;2618335;54;20564;-63
2022/04/06 02:31:52;;;;;;;11.32;9.55;;;;;;;9.59;80.20;98044.00;2618244;46;20061;-63
2022/04/06 02:34:22;;;;;;;11.50;9.98;;;;;;;9.60;80.32;98047.44;2618110;54;20054;-63
2022/04/06 02:36:52;;;;;;;13.00;9.98;;;;;;;9.60;80.41;98039.53;2617815;54;20374;-63
2022/04/06 02:39:24;;;;;;;11.18;9.98;;;;;;;9.58;80.54;98044.19;2618109;54;20030;-63
2022/04/06 02:41:54;;;;;;;11.98;10.68;;;;;;;9.56;80.37;98036.47;2618124;54;20031;-63
2022/04/06 02:44:23;;;;;;;11.32;10.10;;;;;;;9.59;80.42;98045.78;2618157;54;20030;-63
2022/04/06 02:46:53;;;;;;;13.35;11.52;;;;;;;9.59;80.39;98046.63;2617787;54;20555;-63
2022/04/06 02:49:23;;;;;;;13.20;11.60;;;;;;;9.57;80.45;98040.72;2618164;54;20566;-64
2022/04/06 02:51:53;;;;;;;15.32;11.50;;;;;;;9.55;80.43;98049.84;2619011;54;20043;-64
2022/04/06 02:54:25;;;;;;;12.88;10.48;;;;;;;9.57;80.87;98043.38;2618936;47;20023;-64
2022/04/06 02:56:54;;;;;;;12.23;10.93;;;;;;;9.56;80.54;98046.22;2617751;54;20038;-63
2022/04/06 02:59:24;;;;;;;12.40;10.32;;;;;;;9.53;80.37;98039.50;2617787;47;20066;-63
2022/04/06 03:01:54;;;;;;;13.48;10.88;;;;;;;9.56;80.49;98040.94;2622591;54;20562;-62
2022/04/06 03:04:23;;;;;;;12.68;11.13;;;;;;;9.57;80.50;98043.38;2621300;47;20121;-64
2022/04/06 03:06:53;;;;;;;13.02;11.48;;;;;;;9.55;80.10;98026.09;2618589;54;20039;-63
2022/04/06 03:09:25;;;;;;;11.75;10.55;;;;;;;9.54;79.97;98035.84;2618853;54;20026;-63
2022/04/06 03:11:55;;;;;;;12.38;11.05;;;;;;;9.55;79.84;98031.38;2618876;39;20331;-64
2022/04/06 03:14:24;;;;;;;12.75;11.15;;;;;;;9.56;80.05;98033.84;2621154;47;20034;-63
2022/04/06 03:16:54;;;;;;;12.73;11.32;;;;;;;9.56;80.16;98031.19;2622795;54;20026;-63
2022/04/06 03:19:24;;;;;;;13.45;11.20;;;;;;;9.53;79.98;98030.78;2623104;54;20040;-63
2022/04/06 03:21:53;;;;;;;12.85;10.90;;;;;;;9.60;79.82;98036.88;2619553;54;20053;-62
2022/04/06 03:24:26;;;;;;;13.13;11.70;;;;;;;9.61;79.33;98033.22;2619686;39;20399;-63
2022/04/06 03:26:55;;;;;;;11.50;10.18;;;;;;;9.60;79.58;98036.88;2618833;54;20038;-63
2022/04/06 03:29:25;;;;;;;12.25;10.70;;;;;;;9.60;79.60;98042.16;2618369;54;20038;-63
2022/04/06 03:31:55;;;;;;;12.68;10.93;;;;;;;9.61;79.62;98035.84;2619124;54;20029;-63
2022/04/06 03:34:24;;;;;;;13.00;11.10;;;;;;;9.63;79.03;98031.16;2618687;54;20045;-64
2022/04/06 03:36:54;;;;;;;11.65;10.40;;;;;;;9.65;79.02;98032.59;2621094;54;20587;-64
2022/04/06 03:39:26;;;;;;;12.10;10.45;;;;;;;9.65;78.99;98035.25;2622185;54;20031;-64
2022/04/06 03:41:55;;;;;;;12.68;10.32;;;;;;;9.67;78.82;98032.38;2622454;39;20475;-64
2022/04/06 03:44:25;;;;;;;13.10;11.07;;;;;;;9.70;79.14;98028.53;2621708;54;20034;-64
2022/04/06 03:46:56;;;;;;;11.68;10.00;;;;;;;9.69;78.83;98022.44;2619458;54;20034;-64
2022/04/06 03:49:25;;;;;;;13.23;10.05;;;;;;;9.65;78.73;98027.31;2619070;54;20069;-64
2022/04/06 03:51:55;;;;;;;12.45;10.07;;;;;;;9.72;79.00;98016.75;2618844;54;20034;-64
2022/04/06 03:54:27;;;;;;;12.70;10.27;;;;;;;9.74;78.73;98012.06;2619567;39;20444;-64
2022/04/06 03:56:57;;;;;;;11.80;10.27;;;;;;;9.76;78.63;98017.16;2618135;54;20034;-64
2022/04/06 03:59:27;;;;;;;12.40;9.52;;;;;;;9.78;78.67;98007.19;2618949;54;20035;-64
2022/04/06 04:01:57;;;;;;;12.07;10.13;;;;;;;9.75;78.09;98002.31;2618850;54;20039;-63
2022/04/06 04:04:28;;;;;;;11.50;10.13;;;;;;;9.74;78.06;98006.00;2618990;54;20667;-64
2022/04/06 04:06:58;;;;;;;12.73;10.98;;;;;;;9.71;77.99;98007.19;2618024;47;20027;-64
2022/04/06 04:09:32;;;;;;;14.75;10.85;;;;;;;9.74;78.17;98006.00;2618648;54;20046;-63
2022/04/06 04:12:02;;;;;;;12.87;10.30;;;;;;;9.70;77.43;98002.16;2618868;54;20562;-64
2022/04/06 04:14:34;;;;;;;12.63;10.80;;;;;;;9.68;78.15;98002.34;2618926;54;20295;-64
2022/04/06 04:17:05;;;;;;;15.03;9.97;;;;;;;9.67;78.01;97998.91;2622041;54;20034;-63
2022/04/06 04:19:35;;;;;;;14.63;11.13;;;;;;;9.65;78.01;97995.66;2622554;54;20034;-63
2022/04/06 04:22:05;;;;;;;15.10;10.85;;;;;;;9.72;78.05;97989.56;2622669;54;20045;-62
2022/04/06 04:24:37;;;;;;;14.52;10.88;;;;;;;9.74;77.76;97995.44;2623222;54;20742;-63
2022/04/06 04:27:07;;;;;;;14.27;10.85;;;;;;;9.69;77.52;97990.78;2623040;54;20026;-62
2022/04/06 04:29:37;;;;;;;13.10;10.43;;;;;;;9.72;77.65;97984.28;2623012;54;20037;-63
2022/04/06 04:32:07;;;;;;;13.35;11.88;;;;;;;9.69;78.04;97988.13;2622256;54;20059;-62
2022/04/06 04:34:38;;;;;;;15.60;12.20;;;;;;;9.71;77.91;97991.38;2623407;31;20510;-63
2022/04/06 04:37:08;;;;;;;14.18;11.63;;;;;;;9.72;78.00;97981.66;2621669;54;20038;-65
2022/04/06 04:39:40;;;;;;;15.20;11.52;;;;;;;9.70;77.54;97976.56;2622191;54;20038;-63
2022/04/06 04:42:12;;;;;;;14.18;11.40;;;;;;;9.66;77.56;97986.72;2622504;54;20039;-63
2022/04/06 04:44:42;;;;;;;12.50;11.20;;;;;;;9.65;77.79;97989.56;2622589;54;20601;-65
2022/04/06 04:47:12;;;;;;;13.88;11.10;;;;;;;9.68;77.80;97982.06;2621291;54;20041;-63
2022/04/06 04:49:42;;;;;;;15.48;11.82;;;;;;;9.62;77.62;97984.69;2623278;54;20030;-64
2022/04/06 04:52:12;;;;;;;15.45;12.25;;;;;;;9.59;77.96;97988.56;2623573;54;20034;-63
2022/04/06 04:54:44;;;;;;;15.07;12.55;;;;;;;9.59;78.12;97975.38;2622982;54;20031;-65
2022/04/06 04:57:14;;;;;;;13.77;12.20;;;;;;;9.59;77.88;97978.03;2621668;39;20415;-65
2022/04/06 04:59:43;;;;;;;14.50;11.57;;;;;;;9.58;78.02;97978.22;2618691;54;20026;-64
2022/04/06 05:02:13;;;;;;;14.10;11.45;;;;;;;9.59;78.13;97978.03;2619123;54;20565;-64
2022/04/06 05:04:42;;;;;;;18.00;11.88;;;;;;;9.66;77.56;97970.88;2621635;54;20058;-64
2022/04/06 05:07:13;;;;;;;13.48;11.40;;;;;;;9.64;77.82;97982.69;2622864;54;20039;-64
2022/04/06 05:09:45;;;;;;;15.65;11.05;;;;;;;9.66;77.70;97980.63;2623496;54;20567;-63
2022/04/06 05:12:15;;;;;;;18.38;11.77;;;;;;;9.61;77.75;97972.53;2623677;54;20039;-62
2022/04/06 05:14:45;;;;;;;13.75;11.10;;;;;;;9.59;77.81;97977.19;2622988;54;20043;-63
2022/04/06 05:17:16;;;;;;;14.45;11.05;;;;;;;9.62;77.62;97971.50;2623224;54;20617;-63
2022/04/06 05:19:46;;;;;;;14.40;11.05;;;;;;;9.61;77.10;97977.81;2623098;54;20126;-64
2022/04/06 05:22:16;;;;;;;12.95;10.40;;;;;;;9.64;77.54;97986.13;2622269;54;20034;-63
2022/04/06 05:24:48;;;;;;;13.00;10.40;;;;;;;9.64;76.91;97980.03;2621569;54;20038;-65
2022/04/06 05:27:18;;;;;;;14.75;11.07;;;;;;;9.60;77.31;97979.63;2621423;54;20027;-65
2022/04/06 05:29:48;;;;;;;12.55;10.20;;;;;;;9.67;76.92;97982.25;2620946;54;20078;-65
2022/04/06 05:32:18;;;;;;;11.65;10.30;;;;;;;9.71;76.96;97977.38;2622123;54;20046;-63
2022/04/06 05:34:47;;;;;;;12.75;10.65;;;;;;;9.67;76.93;97979.59;2622502;54;20543;-63
2022/04/06 05:37:17;;;;;;;14.00;10.73;;;;;;;9.67;76.52;97979.59;2622421;54;20037;-63
2022/04/06 05:39:49;;;;;;;15.25;10.35;;;;;;;9.66;76.40;97978.00;2621645;54;20026;-62
2022/04/06 05:42:19;;;;;;;15.25;11.18;;;;;;;9.61;76.86;97970.69;2621780;54;20026;-62
2022/04/06 05:44:48;;;;;;;16.80;11.88;;;;;;;9.59;76.52;97978.03;2621636;39;20455;-64
2022/04/06 05:47:19;;;;;;;12.68;10.57;;;;;;;9.63;76.74;97973.94;2621510;54;20034;-62
2022/04/06 05:49:48;;;;;;;15.10;10.82;;;;;;;9.62;76.45;97974.16;2622081;54;20578;-62
2022/04/06 05:52:18;;;;;;;12.38;10.68;;;;;;;9.60;76.38;97974.38;2619811;54;20042;-63
2022/04/06 05:54:51;;;;;;;14.60;10.75;;;;;;;9.60;76.47;97971.72;2618447;47;20083;-62
2022/04/06 05:57:20;;;;;;;14.27;10.55;;;;;;;9.64;76.26;97982.69;2619265;54;20034;-63
2022/04/06 05:59:50;;;;;;;16.42;10.00;;;;;;;9.66;76.02;97973.53;2620118;54;20042;-62
2022/04/06 06:02:23;;;;;;;17.33;10.45;;;;;;;9.67;75.66;97972.53;2621020;54;20155;-63
2022/04/06 06:04:53;;;;;;;13.25;10.00;;;;;;;9.64;75.87;97974.75;2621598;54;20027;-64
2022/04/06 06:07:24;;;;;;;13.20;9.88;;;;;;;9.65;75.90;97963.19;2621522;54;20030;-63
2022/04/06 06:09:56;;;;;;;17.98;11.32;;;;;;;9.66;75.61;97983.25;2621669;47;20026;-64
2022/04/06 06:12:26;;;;;;;13.45;10.43;;;;;;;9.61;75.65;97975.97;2622975;39;20410;-62
2022/04/06 06:14:55;;;;;;;14.13;9.55;;;;;;;9.62;75.60;97989.97;2620902;54;20022;-61
2022/04/06 06:17:25;;;;;;;15.10;10.20;;;;;;;9.63;75.50;97989.78;2621854;54;20041;-63
2022/04/06 06:19:55;;;;;;;13.82;9.50;;;;;;;9.65;75.23;97986.94;2621115;54;20031;-62
2022/04/06 06:22:24;;;;;;;15.23;9.10;;;;;;;9.64;75.08;97985.31;2620625;54;20042;-62
2022/04/06 06:24:56;;;;;;;14.52;10.23;;;;;;;9.66;74.81;97991.19;2620626;54;20029;-63
2022/04/06 06:27:26;;;;;;;13.52;8.65;;;;;;;9.75;75.34;97989.13;2619890;54;20026;-63
2022/04/06 06:29:55;;;;;;;13.25;10.13;;;;;;;9.78;74.94;97986.09;2621779;54;20050;-62
2022/04/06 06:32:25;;;;;;;12.95;9.60;;;;;;;9.78;75.09;97981.63;2621383;46;20050;-62
2022/04/06 06:34:55;;;;;;;15.57;9.55;;;;;;;9.85;74.93;97981.59;2621471;54;20042;-64
2022/04/06 06:37:24;;;;;;;12.73;9.35;;;;;;;9.89;74.80;97982.81;2621324;54;20026;-62
2022/04/06 06:39:57;;;;;;;14.40;9.10;;;;;;;9.97;74.42;97982.59;2622038;54;20031;-62
2022/04/06 06:42:26;;;;;;;9.90;8.38;;;;;;;9.97;74.22;97977.31;2623098;54;20026;-62
2022/04/06 06:44:56;;;;;;;10.27;8.27;;;;;;;9.93;73.78;97973.47;2622761;54;20026;-62
2022/04/06 06:47:26;;;;;;;10.90;7.93;;;;;;;9.95;73.92;97975.88;2622484;54;20107;-63
2022/04/06 06:49:55;;;;;;;13.48;8.13;;;;;;;9.95;73.68;97975.88;2622000;47;20062;-64
2022/04/06 06:52:25;;;;;;;11.27;8.85;;;;;;;9.95;73.76;97974.03;2623192;54;20091;-63
2022/04/06 06:54:59;;;;;;;12.88;8.70;;;;;;;9.95;73.68;97971.41;2623162;54;20033;-63
2022/04/06 06:57:29;;;;;;;8.95;7.97;;;;;;;9.95;72.98;97979.31;2623012;54;20031;-63
2022/04/06 06:59:58;;;;;;;12.75;9.48;;;;;;;9.92;73.58;97975.28;2623603;54;20038;-62
2022/04/06 07:02:28;;;;;;;15.60;9.45;;;;;;;10.00;73.59;97979.53;2623190;54;20094;-61
2022/04/06 07:04:58;;;;;;;19.15;10.77;;;;;;;10.01;73.45;97986.44;2622967;54;20042;-61
2022/04/06 07:07:27;;;;;;;16.55;11.30;;;;;;;10.06;73.63;97988.44;2622360;54;20030;-63
2022/04/06 07:10:00;;;;;;;14.15;10.75;;;;;;;10.14;73.49;97989.00;2623482;39;20400;-64
2022/04/06 07:12:29;;;;;;;14.85;11.52;;;;;;;10.15;73.83;97979.25;2621636;54;20422;-64
2022/04/06 07:14:59;;;;;;;16.25;8.77;;;;;;;10.13;72.55;97968.09;2620489;47;20030;-64
2022/04/06 07:17:29;;;;;;;17.55;8.27;;;;;;;10.09;72.16;97974.81;2620961;54;20038;-67
2022/04/06 07:19:58;;;;;;;11.05;8.13;;;;;;;10.18;72.14;97979.66;2622022;39;20450;-65
2022/04/06 07:22:28;;;;;;;12.35;8.40;;;;;;;10.34;72.12;97981.03;2622228;54;20035;-63
2022/04/06 07:25:00;;;;;;;12.07;7.40;;;;;;;10.43;71.11;97976.31;2623214;39;20431;-63
2022/04/06 07:27:35;;;;;;;11.85;6.95;;;;;;;10.54;70.96;97973.00;2622794;54;20026;-63
2022/04/06 07:30:07;;;;;;;10.38;6.95;;;;;;;10.57;70.63;97955.91;2623854;54;20034;-62
2022/04/06 07:32:38;;;;;;;8.60;6.10;;;;;;;10.68;70.25;97963.16;2624493;54;20034;-62
2022/04/06 07:35:10;;;;;;;9.85;6.30;;;;;;;10.73;69.75;97954.56;2624365;54;20034;-62
2022/04/06 07:37:40;;;;;;;12.50;6.50;;;;;;;10.76;69.22;97962.09;2624054;47;20026;-62
2022/04/06 07:40:15;;;;;;;14.07;6.28;;;;;;;10.83;68.75;97958.38;2624574;54;20030;-61
2022/04/06 07:42:46;;;;;;;11.20;6.47;;;;;;;10.92;68.89;97961.56;2624643;54;20038;-64
2022/04/06 07:45:18;;;;;;;11.45;5.97;;;;;;;11.01;67.37;97949.69;2624808;54;20041;-63
2022/04/06 07:47:49;;;;;;;9.80;5.85;;;;;;;11.06;66.58;97956.97;2622737;54;20570;-63
2022/04/06 07:50:20;;;;;;;9.05;6.28;;;;;;;11.01;66.47;97956.81;2623031;54;20551;-63
2022/04/06 07:52:51;;;;;;;9.57;6.13;;;;;;;11.18;66.32;97954.44;2623164;54;20031;-62
2022/04/06 07:55:23;;;;;;;11.25;5.22;;;;;;;11.31;65.78;97955.13;2623166;54;20026;-62
2022/04/06 07:57:52;;;;;;;9.88;5.88;;;;;;;11.40;65.83;97951.19;2622287;47;20022;-61
2022/04/06 08:00:23;;;;;;;7.63;5.75;;;;;;;11.51;65.52;97946.16;2621512;54;20037;-64
2022/04/06 08:02:52;;;;;;;9.75;5.65;;;;;;;11.59;65.43;97941.44;2621397;54;20027;-63
2022/04/06 08:05:22;;;;;;;8.93;6.18;;;;;;;11.53;64.61;97952.06;2620907;54;20030;-65
2022/04/06 08:07:53;;;;;;;9.13;5.55;;;;;;;11.34;64.63;97951.22;2620325;54;20045;-63
2022/04/06 08:10:28;;;;;;;10.68;5.68;;;;;;;11.37;64.94;97953.44;2619872;47;20033;-64
2022/04/06 08:12:57;;;;;;;9.80;6.35;;;;;;;11.37;64.78;97946.31;2620537;54;20038;-63
2022/04/06 08:15:27;;;;;;;11.23;5.90;;;;;;;11.37;65.13;97938.38;2621903;54;20058;-63
2022/04/06 08:17:57;;;;;;;11.57;6.35;;;;;;;11.33;64.58;97939.84;2621698;54;20027;-63
2022/04/06 08:20:26;;;;;;;11.60;6.53;;;;;;;11.35;63.96;97943.09;2622212;54;20034;-63
2022/04/06 08:22:56;;;;;;;9.65;6.47;;;;;;;11.39;63.29;97957.50;2622085;54;20098;-63
2022/04/06 08:25:29;;;;;;;8.27;5.63;;;;;;;11.31;63.51;97949.84;2622285;54;20038;-63
2022/04/06 08:28:07;;;;;;;9.43;5.72;;;;;;;11.25;63.31;97955.19;2622290;54;20539;-62
2022/04/06 08:30:39;;;;;;;7.50;5.50;;;;;;;11.20;63.23;97963.78;2622951;54;20049;-62
2022/04/06 08:33:11;;;;;;;11.00;6.47;;;;;;;11.00;64.10;97960.47;2622749;54;20561;-61
2022/04/06 08:35:42;;;;;;;9.15;5.78;;;;;;;10.89;64.27;97954.84;2622260;54;20054;-63
2022/04/06 08:38:14;;;;;;;13.65;6.72;;;;;;;10.87;65.14;97962.22;2622231;54;20036;-63
2022/04/06 08:40:47;;;;;;;9.13;6.32;;;;;;;10.91;65.46;97962.59;2622136;51;20027;-64
2022/04/06 08:43:17;;;;;;;11.80;7.13;;;;;;;10.99;65.38;97946.47;2621787;54;20034;-64
2022/04/06 08:45:47;;;;;;;8.50;5.90;;;;;;;11.03;65.67;97955.56;2622149;54;20026;-63
2022/04/06 08:48:17;;;;;;;9.40;5.90;;;;;;;11.04;65.79;97953.75;2622047;54;20034;-63
2022/04/06 08:50:48;;;;;;;8.18;6.00;;;;;;;11.19;65.10;97953.44;2621655;54;20045;-63
2022/04/06 08:53:20;;;;;;;10.40;5.82;;;;;;;11.32;64.43;97948.81;2622361;54;20033;-63
2022/04/06 08:55:53;;;;;;;8.18;5.35;;;;;;;11.60;63.95;97953.63;2621973;54;20038;-63
2022/04/06 08:58:23;;;;;;;7.93;4.97;;;;;;;11.71;62.64;97946.78;2621533;54;20042;-65
2022/04/06 09:00:52;;;;;;;8.63;4.55;;;;;;;11.65;60.15;97948.47;2621379;54;20033;-65
2022/04/06 09:03:24;;;;;;;6.97;4.10;;;;;;;11.57;58.62;97959.34;2621559;54;20030;-62
2022/04/06 09:06:02;;;;;;;7.78;4.35;;;;;;;11.75;57.42;97955.09;2621200;54;20081;-65
2022/04/06 09:08:39;;;;;;;6.78;3.50;;;;;;;11.94;55.86;97955.94;2620322;54;20035;-65
2022/04/06 09:11:13;;;;;;;7.97;3.95;;;;;;;12.08;54.80;97952.09;2619422;54;20046;-64
2022/04/06 09:13:45;;;;;;;9.30;4.38;;;;;;;12.06;53.94;97952.31;2620055;54;20426;-64
2022/04/06 09:16:17;;;;;;;8.48;3.85;;;;;;;12.13;52.61;97955.69;2619802;54;20034;-63
2022/04/06 09:18:48;;;;;;;8.50;3.97;;;;;;;12.30;52.66;97937.34;2620496;54;20027;-64
2022/04/06 09:21:21;;;;;;;8.63;3.65;;;;;;;12.43;53.08;97941.66;2619886;54;20130;-63
2022/04/06 09:23:51;;;;;;;8.80;3.42;;;;;;;12.37;51.99;97927.47;2620442;47;20037;-64
2022/04/06 09:26:24;;;;;;;5.82;3.10;;;;;;;12.31;52.60;97935.50;2621059;54;20031;-64
2022/04/06 09:28:54;;;;;;;6.43;3.70;;;;;;;12.40;52.64;97929.63;2620549;54;20038;-63
2022/04/06 09:31:23;;;;;;;6.57;3.25;;;;;;;12.56;53.10;97938.81;2620739;54;20078;-65
2022/04/06 09:33:59;;;;;;;6.93;3.22;;;;;;;12.44;51.73;97932.66;2620960;54;20031;-64
2022/04/06 09:36:30;;;;;;;11.13;4.38;;;;;;;12.50;52.30;97930.97;2620580;54;20050;-64
2022/04/06 09:39:01;;;;;;;5.78;3.53;;;;;;;12.42;52.00;97945.34;2620435;54;20034;-62
2022/04/06 09:41:34;;;;;;;6.43;3.72;;;;;;;12.23;52.13;97941.91;2620663;54;20069;-63
2022/04/06 09:47:38;;;;;;;9.82;4.47;;;;;;;12.27;52.81;97939.63;2620668;54;20035;-66
2022/04/06 09:50:10;;;;;;;8.35;4.18;;;;;;;12.24;53.82;97938.22;2620182;54;20594;-64
2022/04/06 09:52:42;;;;;;;9.20;4.28;;;;;;;12.37;54.10;97939.91;2620626;54;20086;-65
2022/04/06 09:55:14;;;;;;;8.50;4.28;;;;;;;12.44;54.10;97937.16;2620925;39;20463;-63
2022/04/06 09:57:50;;;;;;;7.47;4.35;;;;;;;12.49;53.80;97929.31;2620388;54;20031;-66
2022/04/06 10:00:21;;;;;;;6.88;3.92;;;;;;;12.36;53.82;97933.78;2621255;54;20034;-63
2022/04/06 10:03:00;;;;;;;8.85;5.03;;;;;;;12.43;53.65;97930.25;2621682;54;20038;-64
2022/04/06 10:05:33;;;;;;;7.10;3.95;;;;;;;12.49;53.62;97930.16;2620841;54;20037;-62
2022/04/06 10:08:04;;;;;;;9.88;4.32;;;;;;;12.49;52.94;97927.50;2620316;47;20026;-65
2022/04/06 10:10:34;;;;;;;9.63;3.78;;;;;;;12.29;52.78;97914.53;2621230;54;20031;-64
2022/04/06 10:13:08;;;;;;;6.38;3.70;;;;;;;12.38;52.52;97915.00;2623123;54;20078;-64
2022/04/06 10:16:00;;;;;;;8.00;4.00;;;;;;;12.39;53.02;97919.28;2622298;54;20134;-64
2022/04/06 10:18:33;;;;;;;7.55;4.03;;;;;;;12.32;53.25;97910.59;2621768;54;20107;-64
2022/04/06 10:21:07;;;;;;;11.40;4.97;;;;;;;12.37;53.34;97906.25;2622777;54;20134;-62
2022/04/06 10:23:48;;;;;;;11.35;5.15;;;;;;;12.50;53.81;97907.91;2622425;54;20031;-62
2022/04/06 10:26:34;;;;;;;8.95;4.68;;;;;;;12.64;53.59;97903.19;2621682;47;20034;-62
2022/04/06 10:29:08;;;;;;;10.77;4.63;;;;;;;12.50;53.43;97907.91;2621188;46;20046;-62
2022/04/06 10:31:38;;;;;;;12.20;4.65;;;;;;;12.33;53.64;97902.44;2622054;54;20543;-62
2022/04/06 10:34:22;;;;;;;9.98;5.22;;;;;;;12.31;54.43;97909.00;2621393;54;20027;-62
2022/04/06 10:37:10;;;;;;;17.48;5.90;;;;;;;12.34;54.76;97892.66;2620525;47;20034;-64
2022/04/06 10:40:02;;;;;;;15.43;6.00;;;;;;;12.63;54.57;97891.78;2620363;54;20041;-65
2022/04/06 10:42:36;;;;;;;11.93;5.40;;;;;;;12.69;54.20;97891.91;2620087;54;20551;-62
2022/04/06 10:45:29;;;;;;;;;;;;;;;12.45;54.50;97888.41;2619950;54;20035;-63
2022/04/06 10:48:11;;;;;;;10.80;5.25;;;;;;;12.46;54.54;97890.84;2619953;54;19953;-62
2022/04/06 10:50:41;;;;;;;8.57;4.95;;;;;;;12.40;55.13;97892.53;2620779;39;20519;-64
2022/04/06 10:53:32;;;;;;;10.35;4.97;;;;;;;12.21;55.45;97898.94;2620034;39;20423;-64
2022/04/06 10:56:06;;;;;;;9.52;5.35;;;;;;;12.11;55.87;97891.50;2618667;54;20023;-65
2022/04/06 10:59:06;;;;;;;10.45;5.00;;;;;;;12.17;55.95;97886.38;2619633;47;20116;-62
2022/04/06 11:01:45;;;;;;;9.15;4.68;;;;;;;12.17;56.95;97895.13;2621439;39;20435;-62
2022/04/06 11:04:20;;;;;;;11.23;4.75;;;;;;;12.20;56.57;97893.84;2621151;54;20030;-62
2022/04/06 11:06:53;;;;;;;7.82;4.55;;;;;;;12.38;55.68;97899.13;2621658;54;20042;-63
2022/04/06 11:12:14;;;;;;;6.07;4.22;;;;;;;12.42;54.91;97897.63;2620631;54;20034;-61
2022/04/06 11:14:44;;;;;;;;;;;;;;;12.42;54.16;97891.53;2620673;47;20070;-62
2022/04/06 11:17:42;;;;;;;11.73;4.50;;;;;;;12.40;54.20;97894.38;2619924;54;19946;-64
2022/04/06 11:20:16;;;;;;;7.20;3.30;;;;;;;12.01;54.02;97919.59;2619414;54;20038;-64
2022/04/06 11:22:47;;;;;;;6.10;3.40;;;;;;;11.92;54.44;97899.72;2620235;54;20038;-63
2022/04/06 11:25:19;;;;;;;10.48;3.58;;;;;;;12.11;54.12;97902.13;2619630;54;20023;-64
2022/04/06 11:27:49;;;;;;;4.93;3.22;;;;;;;12.32;53.97;97895.50;2620093;47;20023;-63
2022/04/06 11:30:21;;;;;;;5.70;2.47;;;;;;;12.47;52.48;97895.09;2621047;54;20038;-63
2022/04/06 11:32:58;;;;;;;2.45;2.08;;;;;;;12.53;52.13;97890.72;2621662;39;20415;-62
2022/04/06 11:35:30;;;;;;;6.28;3.00;;;;;;;12.55;51.90;97893.97;2621207;51;20027;-62
2022/04/06 11:38:02;;;;;;;5.10;2.15;;;;;;;12.38;51.51;97875.25;2621151;54;20034;-62
2022/04/06 11:40:32;;;;;;;4.40;2.40;;;;;;;12.29;51.96;97881.94;2621427;54;20066;-63
2022/04/06 11:43:05;;;;;;;5.50;2.40;;;;;;;12.30;52.52;97872.94;2621326;54;20038;-63
2022/04/06 11:45:40;;;;;;;5.72;2.33;;;;;;;12.36;52.18;97878.13;2620547;47;20039;-62
2022/04/06 11:48:15;;;;;;;3.83;2.38;;;;;;;12.60;52.60;97868.38;2620335;54;20038;-62
2022/04/06 11:50:45;;;;;;;3.47;2.20;;;;;;;12.82;51.62;97868.66;2621194;54;20147;-62
2022/04/06 11:53:18;;;;;;;7.05;2.53;;;;;;;12.84;50.90;97869.22;2621721;54;20530;-62
2022/04/06 11:55:50;;;;;;;3.20;1.88;;;;;;;12.83;50.53;97866.81;2621566;54;20082;-62
2022/04/06 11:58:33;;;;;;;6.20;1.88;;;;;;;12.95;50.73;97853.56;2621712;54;20712;-64
2022/04/06 12:01:04;;;;;;;3.17;1.53;;;;;;;12.78;49.98;97848.13;2621545;54;20038;-64